sensor_id;sensor_type;location;lat;lon;timestamp;P1;durP1;ratioP1;P2;durP2;ratioP2
22105;SDS011;11219;51.486;6.950;2022-08-05T00:01:25;0.80;;;0.70;;
22105;SDS011;11219;51.486;6.950;2022-08-05T00:03:53;0.80;;;0.80;;
22105;SDS011;11219;51.486;6.950;2022-08-05T00:06:20;3.73;;;1.03;;
22105;SDS011;11219;51.486;6.950;2022-08-05T00:08:47;1.33;;;1.20;;
22105;SDS011;11219;51.486;6.950;2022-08-05T00:11:14;1.00;;;0.90;;
22105;SDS011;11219;51.486;6.950;2022-08-05T00:13:42;1.47;;;1.20;;
22105;SDS011;11219;51.486;6.950;2022-08-05T00:16:10;0.80;;;0.80;;
22105;SDS011;11219;51.486;6.950;2022-08-05T00:18:38;1.37;;;1.07;;
22105;SDS011;11219;51.486;6.950;2022-08-05T00:21:08;1.17;;;0.77;;
22105;SDS011;11219;51.486;6.950;2022-08-05T00:23:35;0.80;;;0.70;;
22105;SDS011;11219;51.486;6.950;2022-08-05T00:26:03;1.00;;;0.90;;
22105;SDS011;11219;51.486;6.950;2022-08-05T00:28:30;0.67;;;0.57;;
22105;SDS011;11219;51.486;6.950;2022-08-05T00:30:57;0.67;;;0.37;;
22105;SDS011;11219;51.486;6.950;2022-08-05T00:33:24;0.80;;;0.70;;
22105;SDS011;11219;51.486;6.950;2022-08-05T00:35:50;0.77;;;0.77;;
22105;SDS011;11219;51.486;6.950;2022-08-05T00:38:19;1.70;;;1.27;;
22105;SDS011;11219;51.486;6.950;2022-08-05T00:40:46;0.70;;;0.57;;
22105;SDS011;11219;51.486;6.950;2022-08-05T00:43:14;0.63;;;0.63;;
22105;SDS011;11219;51.486;6.950;2022-08-05T00:45:41;1.63;;;1.50;;
22105;SDS011;11219;51.486;6.950;2022-08-05T00:48:09;1.43;;;1.00;;
22105;SDS011;11219;51.486;6.950;2022-08-05T00:50:38;2.37;;;1.27;;
22105;SDS011;11219;51.486;6.950;2022-08-05T00:53:05;1.23;;;0.90;;
22105;SDS011;11219;51.486;6.950;2022-08-05T00:55:33;2.13;;;1.07;;
22105;SDS011;11219;51.486;6.950;2022-08-05T00:58:00;0.80;;;0.53;;
22105;SDS011;11219;51.486;6.950;2022-08-05T01:00:28;3.93;;;1.50;;
22105;SDS011;11219;51.486;6.950;2022-08-05T01:02:56;1.00;;;0.70;;
22105;SDS011;11219;51.486;6.950;2022-08-05T01:05:24;0.87;;;0.70;;
22105;SDS011;11219;51.486;6.950;2022-08-05T01:07:51;1.10;;;0.90;;
22105;SDS011;11219;51.486;6.950;2022-08-05T01:10:20;1.70;;;0.80;;
22105;SDS011;11219;51.486;6.950;2022-08-05T01:12:54;1.00;;;0.73;;
22105;SDS011;11219;51.486;6.950;2022-08-05T01:15:31;1.03;;;1.03;;
22105;SDS011;11219;51.486;6.950;2022-08-05T01:18:04;4.20;;;1.00;;
22105;SDS011;11219;51.486;6.950;2022-08-05T01:20:44;4.73;;;1.13;;
22105;SDS011;11219;51.486;6.950;2022-08-05T01:23:20;1.07;;;0.97;;
22105;SDS011;11219;51.486;6.950;2022-08-05T01:28:47;1.43;;;1.27;;
22105;SDS011;11219;51.486;6.950;2022-08-05T01:31:20;1.40;;;1.00;;
22105;SDS011;11219;51.486;6.950;2022-08-05T01:33:53;1.10;;;1.00;;
22105;SDS011;11219;51.486;6.950;2022-08-05T01:36:25;1.83;;;0.97;;
22105;SDS011;11219;51.486;6.950;2022-08-05T01:38:56;1.20;;;1.00;;
22105;SDS011;11219;51.486;6.950;2022-08-05T01:41:24;1.00;;;0.90;;
22105;SDS011;11219;51.486;6.950;2022-08-05T01:43:56;1.07;;;0.90;;
22105;SDS011;11219;51.486;6.950;2022-08-05T01:46:23;1.63;;;1.10;;
22105;SDS011;11219;51.486;6.950;2022-08-05T01:48:50;3.53;;;1.07;;
22105;SDS011;11219;51.486;6.950;2022-08-05T01:51:20;1.90;;;1.37;;
22105;SDS011;11219;51.486;6.950;2022-08-05T01:53:48;1.50;;;0.97;;
22105;SDS011;11219;51.486;6.950;2022-08-05T01:56:18;1.10;;;0.90;;
22105;SDS011;11219;51.486;6.950;2022-08-05T01:58:47;1.83;;;1.20;;
22105;SDS011;11219;51.486;6.950;2022-08-05T02:01:18;1.10;;;0.83;;
22105;SDS011;11219;51.486;6.950;2022-08-05T02:03:47;0.90;;;0.83;;
22105;SDS011;11219;51.486;6.950;2022-08-05T02:06:16;1.40;;;1.30;;
22105;SDS011;11219;51.486;6.950;2022-08-05T02:08:43;2.10;;;0.90;;
22105;SDS011;11219;51.486;6.950;2022-08-05T02:11:11;1.10;;;1.00;;
22105;SDS011;11219;51.486;6.950;2022-08-05T02:13:41;1.97;;;1.10;;
22105;SDS011;11219;51.486;6.950;2022-08-05T02:16:13;1.30;;;0.77;;
22105;SDS011;11219;51.486;6.950;2022-08-05T02:18:48;3.60;;;1.43;;
22105;SDS011;11219;51.486;6.950;2022-08-05T02:21:18;1.10;;;1.03;;
22105;SDS011;11219;51.486;6.950;2022-08-05T02:23:48;1.60;;;1.10;;
22105;SDS011;11219;51.486;6.950;2022-08-05T02:26:20;3.73;;;1.40;;
22105;SDS011;11219;51.486;6.950;2022-08-05T02:28:49;0.97;;;0.93;;
22105;SDS011;11219;51.486;6.950;2022-08-05T02:31:20;1.23;;;1.13;;
22105;SDS011;11219;51.486;6.950;2022-08-05T02:33:51;1.03;;;0.67;;
22105;SDS011;11219;51.486;6.950;2022-08-05T02:36:24;3.13;;;1.00;;
22105;SDS011;11219;51.486;6.950;2022-08-05T02:38:51;1.43;;;1.20;;
22105;SDS011;11219;51.486;6.950;2022-08-05T02:41:21;1.20;;;0.93;;
22105;SDS011;11219;51.486;6.950;2022-08-05T02:43:50;3.10;;;1.40;;
22105;SDS011;11219;51.486;6.950;2022-08-05T02:46:20;1.10;;;0.70;;
22105;SDS011;11219;51.486;6.950;2022-08-05T02:48:50;2.13;;;1.27;;
22105;SDS011;11219;51.486;6.950;2022-08-05T02:51:19;1.40;;;1.00;;
22105;SDS011;11219;51.486;6.950;2022-08-05T02:53:47;1.30;;;1.20;;
22105;SDS011;11219;51.486;6.950;2022-08-05T02:56:15;1.17;;;0.87;;
22105;SDS011;11219;51.486;6.950;2022-08-05T02:58:42;1.63;;;1.00;;
22105;SDS011;11219;51.486;6.950;2022-08-05T03:01:12;1.97;;;1.30;;
22105;SDS011;11219;51.486;6.950;2022-08-05T03:03:42;1.30;;;0.70;;
22105;SDS011;11219;51.486;6.950;2022-08-05T03:06:11;1.03;;;0.83;;
22105;SDS011;11219;51.486;6.950;2022-08-05T03:08:38;1.47;;;1.07;;
22105;SDS011;11219;51.486;6.950;2022-08-05T03:11:17;3.60;;;2.07;;
22105;SDS011;11219;51.486;6.950;2022-08-05T03:13:44;1.47;;;1.13;;
22105;SDS011;11219;51.486;6.950;2022-08-05T03:16:11;1.20;;;1.10;;
22105;SDS011;11219;51.486;6.950;2022-08-05T03:18:38;1.30;;;1.20;;
22105;SDS011;11219;51.486;6.950;2022-08-05T03:21:05;1.53;;;1.30;;
22105;SDS011;11219;51.486;6.950;2022-08-05T03:23:33;1.67;;;1.13;;
22105;SDS011;11219;51.486;6.950;2022-08-05T03:26:01;1.70;;;1.20;;
22105;SDS011;11219;51.486;6.950;2022-08-05T03:28:29;3.40;;;1.23;;
22105;SDS011;11219;51.486;6.950;2022-08-05T03:30:56;2.30;;;1.63;;
22105;SDS011;11219;51.486;6.950;2022-08-05T03:33:25;1.80;;;1.37;;
22105;SDS011;11219;51.486;6.950;2022-08-05T03:35:53;1.47;;;1.07;;
22105;SDS011;11219;51.486;6.950;2022-08-05T03:38:21;2.50;;;1.70;;
22105;SDS011;11219;51.486;6.950;2022-08-05T03:40:51;3.27;;;1.40;;
22105;SDS011;11219;51.486;6.950;2022-08-05T03:43:18;1.47;;;1.10;;
22105;SDS011;11219;51.486;6.950;2022-08-05T03:45:48;1.90;;;1.33;;
22105;SDS011;11219;51.486;6.950;2022-08-05T03:48:16;2.17;;;1.47;;
22105;SDS011;11219;51.486;6.950;2022-08-05T03:50:46;2.17;;;1.50;;
22105;SDS011;11219;51.486;6.950;2022-08-05T03:53:20;2.00;;;1.47;;
22105;SDS011;11219;51.486;6.950;2022-08-05T03:55:56;1.57;;;1.30;;
22105;SDS011;11219;51.486;6.950;2022-08-05T03:58:26;3.10;;;1.13;;
22105;SDS011;11219;51.486;6.950;2022-08-05T04:00:56;3.33;;;1.50;;
22105;SDS011;11219;51.486;6.950;2022-08-05T04:03:24;1.37;;;1.07;;
22105;SDS011;11219;51.486;6.950;2022-08-05T04:05:53;2.57;;;1.10;;
22105;SDS011;11219;51.486;6.950;2022-08-05T04:08:21;1.30;;;1.00;;
22105;SDS011;11219;51.486;6.950;2022-08-05T04:10:49;1.47;;;1.23;;
22105;SDS011;11219;51.486;6.950;2022-08-05T04:13:17;1.50;;;1.20;;
22105;SDS011;11219;51.486;6.950;2022-08-05T04:15:45;2.47;;;1.63;;
22105;SDS011;11219;51.486;6.950;2022-08-05T04:18:12;1.27;;;1.13;;
22105;SDS011;11219;51.486;6.950;2022-08-05T04:20:40;4.77;;;1.73;;
22105;SDS011;11219;51.486;6.950;2022-08-05T04:23:07;1.60;;;1.50;;
22105;SDS011;11219;51.486;6.950;2022-08-05T04:25:35;1.90;;;1.20;;
22105;SDS011;11219;51.486;6.950;2022-08-05T04:28:01;1.63;;;1.30;;
22105;SDS011;11219;51.486;6.950;2022-08-05T04:30:30;1.20;;;1.10;;
22105;SDS011;11219;51.486;6.950;2022-08-05T04:32:57;3.57;;;1.73;;
22105;SDS011;11219;51.486;6.950;2022-08-05T04:35:24;2.90;;;1.43;;
22105;SDS011;11219;51.486;6.950;2022-08-05T04:37:50;3.73;;;1.97;;
22105;SDS011;11219;51.486;6.950;2022-08-05T04:40:17;2.97;;;2.00;;
22105;SDS011;11219;51.486;6.950;2022-08-05T04:42:45;2.33;;;1.73;;
22105;SDS011;11219;51.486;6.950;2022-08-05T04:45:11;2.83;;;1.80;;
22105;SDS011;11219;51.486;6.950;2022-08-05T04:47:39;3.83;;;1.80;;
22105;SDS011;11219;51.486;6.950;2022-08-05T04:50:07;2.97;;;1.57;;
22105;SDS011;11219;51.486;6.950;2022-08-05T04:52:34;2.20;;;1.60;;
22105;SDS011;11219;51.486;6.950;2022-08-05T04:55:01;3.37;;;2.03;;
22105;SDS011;11219;51.486;6.950;2022-08-05T04:57:28;2.87;;;1.83;;
22105;SDS011;11219;51.486;6.950;2022-08-05T04:59:55;2.17;;;1.97;;
22105;SDS011;11219;51.486;6.950;2022-08-05T05:02:22;4.50;;;2.47;;
22105;SDS011;11219;51.486;6.950;2022-08-05T05:04:50;5.37;;;2.87;;
22105;SDS011;11219;51.486;6.950;2022-08-05T05:07:17;4.13;;;2.10;;
22105;SDS011;11219;51.486;6.950;2022-08-05T05:09:44;3.83;;;2.83;;
22105;SDS011;11219;51.486;6.950;2022-08-05T05:12:11;4.17;;;2.53;;
22105;SDS011;11219;51.486;6.950;2022-08-05T05:14:38;6.17;;;3.17;;
22105;SDS011;11219;51.486;6.950;2022-08-05T05:17:05;8.20;;;3.13;;
22105;SDS011;11219;51.486;6.950;2022-08-05T05:19:31;4.07;;;2.93;;
22105;SDS011;11219;51.486;6.950;2022-08-05T05:22:00;3.83;;;2.67;;
22105;SDS011;11219;51.486;6.950;2022-08-05T05:24:26;3.10;;;2.47;;
22105;SDS011;11219;51.486;6.950;2022-08-05T05:26:53;3.10;;;2.40;;
22105;SDS011;11219;51.486;6.950;2022-08-05T05:29:20;2.47;;;1.77;;
22105;SDS011;11219;51.486;6.950;2022-08-05T05:31:48;3.73;;;2.30;;
22105;SDS011;11219;51.486;6.950;2022-08-05T05:34:15;2.40;;;1.47;;
22105;SDS011;11219;51.486;6.950;2022-08-05T05:36:42;3.27;;;1.80;;
22105;SDS011;11219;51.486;6.950;2022-08-05T05:39:10;5.80;;;2.20;;
22105;SDS011;11219;51.486;6.950;2022-08-05T05:41:37;2.80;;;1.90;;
22105;SDS011;11219;51.486;6.950;2022-08-05T05:44:04;6.20;;;2.63;;
22105;SDS011;11219;51.486;6.950;2022-08-05T05:46:31;4.13;;;2.27;;
22105;SDS011;11219;51.486;6.950;2022-08-05T05:48:58;4.07;;;2.27;;
22105;SDS011;11219;51.486;6.950;2022-08-05T05:51:24;3.37;;;1.93;;
22105;SDS011;11219;51.486;6.950;2022-08-05T05:53:51;4.73;;;2.40;;
22105;SDS011;11219;51.486;6.950;2022-08-05T05:56:22;3.57;;;2.20;;
22105;SDS011;11219;51.486;6.950;2022-08-05T05:58:49;2.20;;;1.80;;
22105;SDS011;11219;51.486;6.950;2022-08-05T06:01:16;3.00;;;2.47;;
22105;SDS011;11219;51.486;6.950;2022-08-05T06:03:43;5.23;;;3.27;;
22105;SDS011;11219;51.486;6.950;2022-08-05T06:06:09;6.13;;;2.20;;
22105;SDS011;11219;51.486;6.950;2022-08-05T06:08:36;3.90;;;2.60;;
22105;SDS011;11219;51.486;6.950;2022-08-05T06:11:03;2.83;;;2.27;;
22105;SDS011;11219;51.486;6.950;2022-08-05T06:13:32;5.03;;;2.70;;
22105;SDS011;11219;51.486;6.950;2022-08-05T06:16:01;9.73;;;2.70;;
22105;SDS011;11219;51.486;6.950;2022-08-05T06:18:28;3.87;;;3.20;;
22105;SDS011;11219;51.486;6.950;2022-08-05T06:20:54;3.00;;;2.30;;
22105;SDS011;11219;51.486;6.950;2022-08-05T06:23:21;6.80;;;2.97;;
22105;SDS011;11219;51.486;6.950;2022-08-05T06:25:48;3.57;;;2.37;;
22105;SDS011;11219;51.486;6.950;2022-08-05T06:28:15;4.47;;;2.57;;
22105;SDS011;11219;51.486;6.950;2022-08-05T06:30:43;4.73;;;2.70;;
22105;SDS011;11219;51.486;6.950;2022-08-05T06:33:10;6.10;;;2.40;;
22105;SDS011;11219;51.486;6.950;2022-08-05T06:35:37;5.40;;;2.77;;
22105;SDS011;11219;51.486;6.950;2022-08-05T06:38:04;2.33;;;2.00;;
22105;SDS011;11219;51.486;6.950;2022-08-05T06:40:31;3.00;;;1.83;;
22105;SDS011;11219;51.486;6.950;2022-08-05T06:42:58;2.30;;;2.07;;
22105;SDS011;11219;51.486;6.950;2022-08-05T06:45:24;3.47;;;2.30;;
22105;SDS011;11219;51.486;6.950;2022-08-05T06:47:53;3.40;;;2.47;;
22105;SDS011;11219;51.486;6.950;2022-08-05T06:50:19;3.77;;;1.90;;
22105;SDS011;11219;51.486;6.950;2022-08-05T06:52:46;3.70;;;2.30;;
22105;SDS011;11219;51.486;6.950;2022-08-05T06:55:13;3.83;;;2.63;;
22105;SDS011;11219;51.486;6.950;2022-08-05T06:57:41;4.17;;;2.23;;
22105;SDS011;11219;51.486;6.950;2022-08-05T07:00:08;3.73;;;1.97;;
22105;SDS011;11219;51.486;6.950;2022-08-05T07:02:40;2.27;;;1.47;;
22105;SDS011;11219;51.486;6.950;2022-08-05T07:05:09;2.40;;;1.97;;
22105;SDS011;11219;51.486;6.950;2022-08-05T07:07:36;4.17;;;2.00;;
22105;SDS011;11219;51.486;6.950;2022-08-05T07:10:03;2.90;;;1.97;;
22105;SDS011;11219;51.486;6.950;2022-08-05T07:12:31;2.47;;;2.13;;
22105;SDS011;11219;51.486;6.950;2022-08-05T07:15:16;3.00;;;1.93;;
22105;SDS011;11219;51.486;6.950;2022-08-05T07:18:00;2.50;;;2.03;;
22105;SDS011;11219;51.486;6.950;2022-08-05T07:20:28;2.27;;;1.67;;
22105;SDS011;11219;51.486;6.950;2022-08-05T07:22:55;2.33;;;1.73;;
22105;SDS011;11219;51.486;6.950;2022-08-05T07:25:22;2.77;;;1.97;;
22105;SDS011;11219;51.486;6.950;2022-08-05T07:27:49;2.80;;;1.63;;
22105;SDS011;11219;51.486;6.950;2022-08-05T07:30:17;4.17;;;1.80;;
22105;SDS011;11219;51.486;6.950;2022-08-05T07:32:44;2.20;;;1.60;;
22105;SDS011;11219;51.486;6.950;2022-08-05T07:35:12;2.17;;;1.87;;
22105;SDS011;11219;51.486;6.950;2022-08-05T07:37:40;7.23;;;1.57;;
22105;SDS011;11219;51.486;6.950;2022-08-05T07:40:08;4.37;;;1.60;;
22105;SDS011;11219;51.486;6.950;2022-08-05T07:42:35;1.87;;;1.60;;
22105;SDS011;11219;51.486;6.950;2022-08-05T07:45:06;3.47;;;1.30;;
22105;SDS011;11219;51.486;6.950;2022-08-05T07:47:33;1.50;;;1.40;;
22105;SDS011;11219;51.486;6.950;2022-08-05T07:50:00;2.10;;;1.70;;
22105;SDS011;11219;51.486;6.950;2022-08-05T07:52:27;1.40;;;1.30;;
22105;SDS011;11219;51.486;6.950;2022-08-05T07:54:55;1.27;;;1.17;;
22105;SDS011;11219;51.486;6.950;2022-08-05T07:57:22;7.50;;;1.40;;
22105;SDS011;11219;51.486;6.950;2022-08-05T07:59:49;1.47;;;1.37;;
22105;SDS011;11219;51.486;6.950;2022-08-05T08:02:16;0.93;;;0.90;;
22105;SDS011;11219;51.486;6.950;2022-08-05T08:04:48;1.77;;;1.37;;
22105;SDS011;11219;51.486;6.950;2022-08-05T08:07:15;1.30;;;1.20;;
22105;SDS011;11219;51.486;6.950;2022-08-05T08:09:42;2.50;;;1.20;;
22105;SDS011;11219;51.486;6.950;2022-08-05T08:12:10;1.27;;;1.17;;
22105;SDS011;11219;51.486;6.950;2022-08-05T08:14:38;1.23;;;1.13;;
22105;SDS011;11219;51.486;6.950;2022-08-05T08:17:05;1.60;;;1.40;;
22105;SDS011;11219;51.486;6.950;2022-08-05T08:19:34;2.40;;;1.23;;
22105;SDS011;11219;51.486;6.950;2022-08-05T08:22:01;1.40;;;1.30;;
22105;SDS011;11219;51.486;6.950;2022-08-05T08:24:28;1.50;;;1.40;;
22105;SDS011;11219;51.486;6.950;2022-08-05T08:26:56;1.97;;;1.70;;
22105;SDS011;11219;51.486;6.950;2022-08-05T08:29:24;2.37;;;1.33;;
22105;SDS011;11219;51.486;6.950;2022-08-05T08:31:51;2.13;;;1.43;;
22105;SDS011;11219;51.486;6.950;2022-08-05T08:34:18;2.60;;;1.53;;
22105;SDS011;11219;51.486;6.950;2022-08-05T08:36:46;1.50;;;1.20;;
22105;SDS011;11219;51.486;6.950;2022-08-05T08:39:13;2.30;;;1.17;;
22105;SDS011;11219;51.486;6.950;2022-08-05T08:41:42;2.33;;;1.50;;
22105;SDS011;11219;51.486;6.950;2022-08-05T08:44:12;2.27;;;1.10;;
22105;SDS011;11219;51.486;6.950;2022-08-05T08:46:41;2.13;;;1.40;;
22105;SDS011;11219;51.486;6.950;2022-08-05T08:49:11;1.23;;;1.13;;
22105;SDS011;11219;51.486;6.950;2022-08-05T08:51:39;1.80;;;1.30;;
22105;SDS011;11219;51.486;6.950;2022-08-05T08:54:07;1.33;;;1.23;;
22105;SDS011;11219;51.486;6.950;2022-08-05T08:56:36;3.07;;;1.20;;
22105;SDS011;11219;51.486;6.950;2022-08-05T08:59:04;1.80;;;1.07;;
22105;SDS011;11219;51.486;6.950;2022-08-05T09:01:31;3.50;;;1.83;;
22105;SDS011;11219;51.486;6.950;2022-08-05T09:03:59;7.20;;;1.70;;
22105;SDS011;11219;51.486;6.950;2022-08-05T09:06:27;1.37;;;1.23;;
22105;SDS011;11219;51.486;6.950;2022-08-05T09:08:55;1.80;;;1.30;;
22105;SDS011;11219;51.486;6.950;2022-08-05T09:11:24;1.30;;;1.17;;
22105;SDS011;11219;51.486;6.950;2022-08-05T09:13:51;1.33;;;1.23;;
22105;SDS011;11219;51.486;6.950;2022-08-05T09:16:19;1.27;;;1.17;;
22105;SDS011;11219;51.486;6.950;2022-08-05T09:18:46;1.17;;;1.07;;
22105;SDS011;11219;51.486;6.950;2022-08-05T09:21:14;1.53;;;1.30;;
22105;SDS011;11219;51.486;6.950;2022-08-05T09:23:41;2.97;;;1.10;;
22105;SDS011;11219;51.486;6.950;2022-08-05T09:26:11;1.50;;;1.27;;
22105;SDS011;11219;51.486;6.950;2022-08-05T09:28:41;1.60;;;1.23;;
22105;SDS011;11219;51.486;6.950;2022-08-05T09:31:09;1.00;;;1.00;;
22105;SDS011;11219;51.486;6.950;2022-08-05T09:33:45;1.50;;;1.20;;
22105;SDS011;11219;51.486;6.950;2022-08-05T09:36:15;1.07;;;0.97;;
22105;SDS011;11219;51.486;6.950;2022-08-05T09:41:25;1.13;;;1.03;;
22105;SDS011;11219;51.486;6.950;2022-08-05T09:43:52;1.03;;;0.80;;
22105;SDS011;11219;51.486;6.950;2022-08-05T09:46:23;2.53;;;0.97;;
22105;SDS011;11219;51.486;6.950;2022-08-05T09:48:51;1.47;;;1.00;;
22105;SDS011;11219;51.486;6.950;2022-08-05T09:51:30;1.10;;;0.83;;
22105;SDS011;11219;51.486;6.950;2022-08-05T09:53:58;1.40;;;1.30;;
22105;SDS011;11219;51.486;6.950;2022-08-05T09:56:26;1.47;;;1.37;;
22105;SDS011;11219;51.486;6.950;2022-08-05T09:58:57;0.80;;;0.80;;
22105;SDS011;11219;51.486;6.950;2022-08-05T10:01:26;2.57;;;0.80;;
22105;SDS011;11219;51.486;6.950;2022-08-05T10:03:54;5.20;;;1.40;;
22105;SDS011;11219;51.486;6.950;2022-08-05T10:06:24;1.00;;;1.00;;
22105;SDS011;11219;51.486;6.950;2022-08-05T10:08:53;1.30;;;1.20;;
22105;SDS011;11219;51.486;6.950;2022-08-05T10:11:21;2.97;;;1.43;;
22105;SDS011;11219;51.486;6.950;2022-08-05T10:13:48;1.57;;;1.10;;
22105;SDS011;11219;51.486;6.950;2022-08-05T10:16:28;1.30;;;1.20;;
22105;SDS011;11219;51.486;6.950;2022-08-05T10:18:58;1.33;;;1.23;;
22105;SDS011;11219;51.486;6.950;2022-08-05T10:21:25;0.90;;;0.82;;
22105;SDS011;11219;51.486;6.950;2022-08-05T10:23:54;1.13;;;1.00;;
22105;SDS011;11219;51.486;6.950;2022-08-05T10:26:21;1.13;;;1.02;;
22105;SDS011;11219;51.486;6.950;2022-08-05T10:28:48;1.27;;;1.17;;
22105;SDS011;11219;51.486;6.950;2022-08-05T10:31:16;1.15;;;1.00;;
22105;SDS011;11219;51.486;6.950;2022-08-05T10:33:43;1.73;;;1.27;;
22105;SDS011;11219;51.486;6.950;2022-08-05T10:36:09;1.35;;;1.10;;
22105;SDS011;11219;51.486;6.950;2022-08-05T10:38:38;1.55;;;1.05;;
22105;SDS011;11219;51.486;6.950;2022-08-05T10:41:12;1.33;;;0.70;;
22105;SDS011;11219;51.486;6.950;2022-08-05T10:43:50;0.95;;;0.85;;
22105;SDS011;11219;51.486;6.950;2022-08-05T10:46:20;1.60;;;1.00;;
22105;SDS011;11219;51.486;6.950;2022-08-05T10:48:48;3.25;;;0.90;;
22105;SDS011;11219;51.486;6.950;2022-08-05T10:51:20;1.33;;;1.08;;
22105;SDS011;11219;51.486;6.950;2022-08-05T10:53:53;0.77;;;0.75;;
22105;SDS011;11219;51.486;6.950;2022-08-05T10:56:23;1.13;;;1.00;;
22105;SDS011;11219;51.486;6.950;2022-08-05T10:59:02;0.90;;;0.90;;
22105;SDS011;11219;51.486;6.950;2022-08-05T11:01:33;1.70;;;0.90;;
22105;SDS011;11219;51.486;6.950;2022-08-05T11:04:05;1.00;;;0.90;;
22105;SDS011;11219;51.486;6.950;2022-08-05T11:07:01;1.02;;;1.00;;
22105;SDS011;11219;51.486;6.950;2022-08-05T11:09:42;0.88;;;0.85;;
22105;SDS011;11219;51.486;6.950;2022-08-05T11:12:40;1.95;;;1.20;;
22105;SDS011;11219;51.486;6.950;2022-08-05T11:15:18;2.83;;;1.30;;
22105;SDS011;11219;51.486;6.950;2022-08-05T11:17:47;0.85;;;0.85;;
22105;SDS011;11219;51.486;6.950;2022-08-05T11:23:26;0.80;;;0.80;;
22105;SDS011;11219;51.486;6.950;2022-08-05T11:26:01;1.42;;;1.20;;
22105;SDS011;11219;51.486;6.950;2022-08-05T11:28:36;1.20;;;1.10;;
22105;SDS011;11219;51.486;6.950;2022-08-05T11:34:05;2.00;;;1.33;;
22105;SDS011;11219;51.486;6.950;2022-08-05T11:42:15;1.67;;;1.58;;
22105;SDS011;11219;51.486;6.950;2022-08-05T11:44:48;1.33;;;1.23;;
22105;SDS011;11219;51.486;6.950;2022-08-05T11:47:19;1.95;;;1.60;;
22105;SDS011;11219;51.486;6.950;2022-08-05T11:49:47;2.35;;;1.60;;
22105;SDS011;11219;51.486;6.950;2022-08-05T11:52:21;1.13;;;0.88;;
22105;SDS011;11219;51.486;6.950;2022-08-05T11:54:51;1.50;;;1.20;;
22105;SDS011;11219;51.486;6.950;2022-08-05T11:57:18;0.95;;;0.95;;
22105;SDS011;11219;51.486;6.950;2022-08-05T11:59:45;1.30;;;1.20;;
22105;SDS011;11219;51.486;6.950;2022-08-05T12:02:12;1.15;;;1.05;;
22105;SDS011;11219;51.486;6.950;2022-08-05T12:04:39;1.42;;;1.33;;
22105;SDS011;11219;51.486;6.950;2022-08-05T12:07:08;0.90;;;0.90;;
22105;SDS011;11219;51.486;6.950;2022-08-05T12:09:37;0.82;;;0.82;;
22105;SDS011;11219;51.486;6.950;2022-08-05T12:12:06;2.45;;;1.15;;
22105;SDS011;11219;51.486;6.950;2022-08-05T12:14:35;1.30;;;1.20;;
22105;SDS011;11219;51.486;6.950;2022-08-05T12:17:05;1.17;;;1.08;;
22105;SDS011;11219;51.486;6.950;2022-08-05T12:19:39;2.10;;;0.75;;
22105;SDS011;11219;51.486;6.950;2022-08-05T12:22:07;1.35;;;1.15;;
22105;SDS011;11219;51.486;6.950;2022-08-05T12:24:34;1.17;;;1.08;;
22105;SDS011;11219;51.486;6.950;2022-08-05T12:27:08;0.75;;;0.75;;
22105;SDS011;11219;51.486;6.950;2022-08-05T12:29:35;0.90;;;0.90;;
22105;SDS011;11219;51.486;6.950;2022-08-05T12:32:03;2.13;;;1.23;;
22105;SDS011;11219;51.486;6.950;2022-08-05T12:34:32;1.08;;;0.90;;
22105;SDS011;11219;51.486;6.950;2022-08-05T12:37:01;1.27;;;1.05;;
22105;SDS011;11219;51.486;6.950;2022-08-05T12:39:35;2.58;;;1.35;;
22105;SDS011;11219;51.486;6.950;2022-08-05T12:42:02;2.15;;;1.05;;
22105;SDS011;11219;51.486;6.950;2022-08-05T12:44:35;1.73;;;1.10;;
22105;SDS011;11219;51.486;6.950;2022-08-05T12:47:02;1.38;;;1.00;;
22105;SDS011;11219;51.486;6.950;2022-08-05T12:49:40;0.90;;;0.90;;
22105;SDS011;11219;51.486;6.950;2022-08-05T12:52:13;1.20;;;0.82;;
22105;SDS011;11219;51.486;6.950;2022-08-05T12:54:41;0.73;;;0.73;;
22105;SDS011;11219;51.486;6.950;2022-08-05T12:57:10;0.75;;;0.75;;
22105;SDS011;11219;51.486;6.950;2022-08-05T12:59:45;1.25;;;0.90;;
22105;SDS011;11219;51.486;6.950;2022-08-05T13:02:15;0.90;;;0.90;;
22105;SDS011;11219;51.486;6.950;2022-08-05T13:04:43;2.47;;;1.30;;
22105;SDS011;11219;51.486;6.950;2022-08-05T13:07:12;0.82;;;0.82;;
22105;SDS011;11219;51.486;6.950;2022-08-05T13:09:41;2.80;;;1.05;;
22105;SDS011;11219;51.486;6.950;2022-08-05T13:12:11;1.15;;;1.00;;
22105;SDS011;11219;51.486;6.950;2022-08-05T13:14:41;0.60;;;0.60;;
22105;SDS011;11219;51.486;6.950;2022-08-05T13:17:15;0.75;;;0.70;;
22105;SDS011;11219;51.486;6.950;2022-08-05T13:19:56;0.50;;;0.50;;
22105;SDS011;11219;51.486;6.950;2022-08-05T13:22:24;0.85;;;0.85;;
22105;SDS011;11219;51.486;6.950;2022-08-05T13:24:51;1.75;;;1.02;;
22105;SDS011;11219;51.486;6.950;2022-08-05T13:27:24;0.60;;;0.60;;
22105;SDS011;11219;51.486;6.950;2022-08-05T13:29:51;0.73;;;0.68;;
22105;SDS011;11219;51.486;6.950;2022-08-05T13:32:18;0.55;;;0.52;;
22105;SDS011;11219;51.486;6.950;2022-08-05T13:34:48;0.65;;;0.60;;
22105;SDS011;11219;51.486;6.950;2022-08-05T13:37:16;1.65;;;0.75;;
22105;SDS011;11219;51.486;6.950;2022-08-05T13:39:43;0.60;;;0.60;;
22105;SDS011;11219;51.486;6.950;2022-08-05T13:42:10;0.95;;;0.80;;
22105;SDS011;11219;51.486;6.950;2022-08-05T13:44:38;0.93;;;0.55;;
22105;SDS011;11219;51.486;6.950;2022-08-05T13:47:05;0.60;;;0.60;;
22105;SDS011;11219;51.486;6.950;2022-08-05T13:49:31;0.82;;;0.47;;
22105;SDS011;11219;51.486;6.950;2022-08-05T13:52:08;0.32;;;0.32;;
22105;SDS011;11219;51.486;6.950;2022-08-05T13:54:36;2.40;;;0.50;;
22105;SDS011;11219;51.486;6.950;2022-08-05T13:57:03;1.45;;;0.75;;
22105;SDS011;11219;51.486;6.950;2022-08-05T13:59:30;0.40;;;0.40;;
22105;SDS011;11219;51.486;6.950;2022-08-05T14:01:59;4.10;;;0.55;;
22105;SDS011;11219;51.486;6.950;2022-08-05T14:04:27;0.77;;;0.60;;
22105;SDS011;11219;51.486;6.950;2022-08-05T14:07:13;2.75;;;1.83;;
22105;SDS011;11219;51.486;6.950;2022-08-05T14:09:39;0.50;;;0.50;;
22105;SDS011;11219;51.486;6.950;2022-08-05T14:12:06;0.57;;;0.57;;
22105;SDS011;11219;51.486;6.950;2022-08-05T14:14:33;0.77;;;0.70;;
22105;SDS011;11219;51.486;6.950;2022-08-05T14:17:02;0.43;;;0.43;;
22105;SDS011;11219;51.486;6.950;2022-08-05T14:19:30;0.45;;;0.45;;
22105;SDS011;11219;51.486;6.950;2022-08-05T14:21:57;0.70;;;0.60;;
22105;SDS011;11219;51.486;6.950;2022-08-05T14:24:24;0.60;;;0.60;;
22105;SDS011;11219;51.486;6.950;2022-08-05T14:26:51;0.50;;;0.50;;
22105;SDS011;11219;51.486;6.950;2022-08-05T14:29:18;0.50;;;0.50;;
22105;SDS011;11219;51.486;6.950;2022-08-05T14:31:44;0.43;;;0.40;;
22105;SDS011;11219;51.486;6.950;2022-08-05T14:34:12;0.63;;;0.50;;
22105;SDS011;11219;51.486;6.950;2022-08-05T14:36:39;0.28;;;0.28;;
22105;SDS011;11219;51.486;6.950;2022-08-05T14:39:06;0.57;;;0.30;;
22105;SDS011;11219;51.486;6.950;2022-08-05T14:41:33;0.30;;;0.30;;
22105;SDS011;11219;51.486;6.950;2022-08-05T14:44:00;0.43;;;0.40;;
22105;SDS011;11219;51.486;6.950;2022-08-05T14:46:27;0.95;;;0.57;;
22105;SDS011;11219;51.486;6.950;2022-08-05T14:48:55;0.10;;;0.10;;
22105;SDS011;11219;51.486;6.950;2022-08-05T14:51:24;0.40;;;0.38;;
22105;SDS011;11219;51.486;6.950;2022-08-05T14:53:51;0.30;;;0.30;;
22105;SDS011;11219;51.486;6.950;2022-08-05T14:56:18;0.82;;;0.38;;
22105;SDS011;11219;51.486;6.950;2022-08-05T14:58:45;1.17;;;0.28;;
22105;SDS011;11219;51.486;6.950;2022-08-05T15:01:12;0.35;;;0.20;;
22105;SDS011;11219;51.486;6.950;2022-08-05T15:03:39;0.47;;;0.20;;
22105;SDS011;11219;51.486;6.950;2022-08-05T15:06:06;0.20;;;0.20;;
22105;SDS011;11219;51.486;6.950;2022-08-05T15:08:34;0.10;;;0.10;;
22105;SDS011;11219;51.486;6.950;2022-08-05T15:11:01;0.80;;;0.10;;
22105;SDS011;11219;51.486;6.950;2022-08-05T15:13:28;0.25;;;0.25;;
22105;SDS011;11219;51.486;6.950;2022-08-05T15:15:55;0.50;;;0.22;;